createdAt,value
2023-03-17T00:00:13.772Z,175.94
2023-03-17T00:01:13.865Z,174.77
2023-03-17T00:02:13.982Z,175.53
2023-03-17T00:03:14.056Z,174.77
2023-03-17T00:04:14.138Z,175.27
2023-03-17T00:05:14.217Z,174.22
2023-03-17T00:06:14.322Z,176.30
2023-03-17T00:07:14.432Z,171.90
2023-03-17T00:08:14.542Z,172.80
2023-03-17T00:09:14.672Z,174.25
2023-03-17T00:10:14.744Z,174.82
2023-03-17T00:11:14.921Z,175.37
2023-03-17T00:12:14.991Z,175.91
2023-03-17T00:13:15.103Z,174.52
2023-03-17T00:14:15.293Z,173.08
2023-03-17T00:15:15.319Z,174.24
2023-03-17T00:16:15.467Z,171.76
2023-03-17T00:17:15.502Z,173.45
2023-03-17T00:18:15.599Z,174.05
2023-03-17T00:39:17.973Z,172.38
2023-03-17T00:49:19.151Z,168.65
2023-03-17T02:39:28.002Z,153.57
2023-03-17T02:40:28.387Z,151.58
2023-03-17T02:41:28.098Z,151.85
2023-03-17T02:42:28.174Z,150.43
2023-03-17T02:43:28.225Z,148.72
2023-03-17T02:44:28.273Z,149.65
2023-03-17T02:45:28.343Z,149.99
2023-03-17T02:46:28.543Z,150.28
2023-03-17T02:47:28.515Z,149.62
2023-03-17T02:48:28.618Z,150.43
2023-03-17T02:49:28.682Z,149.64
2023-03-17T02:50:29.075Z,149.24
2023-03-17T02:51:28.858Z,151.49
2023-03-17T02:52:28.959Z,150.94
2023-03-17T02:53:28.963Z,147.32
2023-03-17T02:54:29.024Z,149.00
2023-03-17T02:55:29.066Z,148.36
2023-03-17T02:56:29.121Z,148.67
2023-03-17T02:57:29.215Z,149.37
2023-03-17T02:58:29.238Z,148.70
2023-03-17T02:59:29.296Z,149.16
2023-03-17T03:00:29.655Z,146.87
2023-03-17T03:01:29.507Z,148.43
2023-03-17T03:02:29.492Z,149.17
2023-03-17T03:03:29.536Z,146.94
2023-03-17T03:04:29.703Z,148.80
2023-03-17T03:05:29.643Z,148.02
2023-03-17T03:06:29.694Z,146.06
2023-03-17T03:07:29.764Z,148.70
2023-03-17T03:08:29.838Z,147.87
2023-03-17T03:09:29.907Z,147.13
2023-03-17T03:10:30.159Z,147.91
2023-03-17T03:11:30.010Z,148.12
2023-03-17T03:12:30.095Z,146.37
2023-03-17T03:13:30.180Z,145.02
2023-03-17T03:14:30.282Z,149.26
2023-03-17T03:15:30.470Z,146.05
2023-03-17T03:16:30.458Z,148.30
2023-03-17T03:17:30.527Z,146.68
2023-03-17T03:18:30.586Z,146.90
2023-03-17T03:19:30.667Z,145.80
2023-03-17T03:20:31.006Z,147.02
2023-03-17T03:21:30.859Z,147.82
2023-03-17T03:22:30.931Z,147.06
2023-03-17T03:23:31.009Z,144.84
2023-03-17T03:24:31.113Z,145.66
2023-03-17T03:25:31.156Z,144.86
2023-03-17T03:26:31.201Z,146.19
2023-03-17T03:27:31.283Z,145.69
2023-03-17T03:28:31.369Z,143.49
2023-03-17T03:29:31.423Z,145.89
2023-03-17T03:30:32.004Z,143.56
2023-03-17T03:31:31.579Z,142.33
2023-03-17T03:32:31.700Z,143.09
2023-03-17T03:33:31.693Z,146.10
2023-03-17T03:34:31.753Z,143.19
2023-03-17T03:35:31.827Z,143.84
2023-03-17T03:36:31.868Z,143.94
2023-03-17T03:37:31.946Z,143.68
2023-03-17T03:38:32.103Z,142.75
2023-03-17T03:39:32.114Z,141.06
2023-03-17T03:40:32.472Z,144.38
2023-03-17T03:41:32.319Z,144.46
2023-03-17T03:42:32.399Z,144.16
2023-03-17T03:43:32.476Z,145.58
2023-03-17T03:44:32.540Z,142.92
2023-03-17T03:45:32.615Z,142.90
2023-03-17T03:46:32.781Z,142.31
2023-03-17T03:47:32.792Z,143.90
2023-03-17T03:48:32.881Z,143.82
2023-03-17T03:49:32.984Z,142.57
2023-03-17T03:50:33.049Z,141.93
2023-03-17T03:51:33.143Z,141.83
2023-03-17T03:52:33.213Z,142.43
2023-03-17T03:53:33.252Z,145.28
2023-03-17T03:54:33.314Z,143.89
2023-03-17T03:55:33.372Z,138.75
2023-03-17T03:56:33.431Z,142.23
2023-03-17T03:57:33.498Z,140.12
2023-03-17T03:58:33.576Z,141.15
2023-03-17T03:59:33.601Z,142.24
2023-03-17T04:00:33.658Z,141.61
2023-03-17T04:01:33.739Z,142.23
2023-03-17T04:02:33.814Z,141.38
2023-03-17T04:03:33.879Z,142.94
2023-03-17T04:04:33.966Z,143.59
2023-03-17T04:05:33.990Z,141.40
2023-03-17T04:06:34.065Z,143.08
2023-03-17T04:07:34.175Z,144.41
2023-03-17T04:08:34.266Z,141.96
2023-03-17T04:09:34.332Z,139.35
2023-03-17T04:10:34.441Z,141.20
2023-03-17T04:11:34.511Z,140.52
2023-03-17T04:12:34.552Z,142.35
2023-03-17T04:13:34.612Z,139.77
2023-03-17T04:14:34.677Z,141.39
2023-03-17T04:15:34.794Z,141.01
2023-03-17T04:16:34.832Z,138.78
2023-03-17T04:17:34.858Z,138.67
2023-03-17T04:18:34.974Z,139.45
2023-03-17T04:19:35.001Z,138.61
2023-03-17T04:20:35.040Z,139.35
2023-03-17T04:21:35.122Z,138.94
2023-03-17T04:22:35.238Z,138.33
2023-03-17T04:23:35.326Z,139.87
2023-03-17T04:24:35.426Z,139.39
2023-03-17T04:25:35.541Z,136.44
2023-03-17T04:26:35.654Z,138.47
2023-03-17T04:27:35.766Z,138.08
2023-03-17T04:28:35.892Z,136.02
2023-03-17T04:29:35.988Z,139.22
2023-03-17T04:30:36.089Z,137.25
2023-03-17T04:31:36.215Z,136.34
2023-03-17T04:32:36.335Z,136.51
2023-03-17T04:33:36.420Z,135.53
2023-03-17T04:34:36.546Z,137.55
2023-03-17T04:47:37.984Z,132.18
2023-03-17T04:48:38.641Z,134.06
2023-03-17T04:49:38.190Z,130.72
2023-03-17T04:50:38.287Z,133.14
2023-03-17T04:51:38.404Z,131.30
2023-03-17T04:52:38.527Z,132.47
2023-03-17T04:53:38.624Z,133.11
2023-03-17T04:54:38.744Z,132.29
2023-03-17T04:55:38.837Z,133.07
2023-03-17T04:56:38.949Z,132.69
2023-03-17T04:57:39.069Z,130.88
2023-03-17T04:58:39.164Z,132.80
2023-03-17T04:59:39.274Z,131.59
2023-03-17T05:00:39.376Z,132.19
2023-03-17T05:01:39.486Z,131.23
2023-03-17T05:02:39.632Z,130.66
2023-03-17T05:03:39.720Z,131.43
2023-03-17T05:04:39.813Z,132.11
2023-03-17T05:05:39.920Z,131.97
2023-03-17T05:06:40.043Z,131.58
2023-03-17T05:07:40.152Z,131.98
2023-03-17T05:08:40.245Z,130.79
2023-03-17T05:09:40.366Z,130.99
2023-03-17T06:21:48.016Z,122.47
2023-03-17T06:23:02.701Z,130.91
2023-03-17T06:23:49.163Z,131.15
2023-03-17T06:24:48.209Z,131.45
2023-03-17T06:25:48.259Z,133.23
2023-03-17T06:26:48.302Z,135.65
2023-03-17T06:27:48.338Z,136.03
2023-03-17T06:28:48.386Z,138.54
2023-03-17T06:29:48.428Z,142.90
2023-03-17T06:30:48.526Z,148.30
2023-03-17T06:31:48.519Z,145.83
2023-03-17T06:32:48.594Z,155.74
2023-03-17T06:33:48.601Z,158.51
2023-03-17T06:34:48.678Z,162.01
2023-03-17T06:35:48.747Z,169.84
2023-03-17T06:36:48.745Z,175.17
2023-03-17T06:37:48.795Z,176.27
2023-03-17T06:38:48.846Z,180.54
2023-03-17T06:39:48.924Z,183.94
2023-03-17T06:40:48.958Z,188.31
2023-03-17T06:41:49.024Z,195.90
2023-03-17T06:42:49.098Z,199.67
2023-03-17T06:43:49.160Z,201.41
2023-03-17T06:44:49.263Z,206.99
2023-03-17T06:45:49.365Z,210.85
2023-03-17T06:46:49.528Z,217.61
2023-03-17T06:47:49.568Z,221.98
2023-03-17T06:48:49.660Z,227.46
2023-03-17T06:49:49.748Z,231.53
2023-03-17T06:50:49.858Z,234.04
2023-03-17T06:51:49.937Z,237.79
2023-03-17T06:52:50.047Z,242.58
2023-03-17T06:53:50.142Z,247.18
2023-03-17T06:54:50.220Z,249.54
2023-03-17T06:55:50.302Z,250.00
2023-03-17T06:56:50.376Z,225.92
2023-03-17T06:57:51.266Z,231.93
2023-03-17T06:58:50.556Z,171.04
2023-03-17T06:59:50.656Z,139.25
2023-03-17T07:00:50.693Z,147.14
2023-03-17T07:01:50.782Z,171.58
2023-03-17T07:02:50.825Z,179.35
2023-03-17T07:03:50.896Z,181.71
2023-03-17T07:04:50.987Z,184.55
2023-03-17T07:05:51.012Z,178.83
2023-03-17T07:06:51.083Z,190.20
2023-03-17T07:07:51.169Z,197.80
2023-03-17T07:08:51.276Z,201.71
2023-03-17T07:53:05.441Z,249.07
2023-03-17T09:29:57.989Z,15.38
2023-03-17T09:30:58.050Z,25.97
2023-03-17T09:31:58.042Z,34.26
2023-03-17T09:32:58.206Z,34.87
2023-03-17T09:33:58.095Z,36.66
2023-03-17T09:34:58.123Z,45.62
2023-03-17T09:35:58.223Z,54.14
2023-03-17T09:36:58.180Z,58.55
2023-03-17T09:37:58.202Z,62.46
2023-03-17T09:38:58.230Z,68.27
2023-03-17T09:39:58.299Z,74.30
2023-03-17T09:40:58.395Z,77.86
2023-03-17T09:41:58.478Z,81.60
2023-03-17T09:42:58.537Z,85.52
2023-03-17T09:43:58.619Z,88.27
2023-03-17T09:44:58.672Z,94.61
2023-03-17T09:45:58.740Z,97.04
2023-03-17T09:46:58.795Z,99.15
2023-03-17T09:47:58.864Z,102.50
2023-03-17T09:48:58.891Z,106.50
2023-03-17T09:49:58.936Z,108.15
2023-03-17T09:50:58.987Z,109.83
2023-03-17T09:57:59.268Z,125.67
2023-03-17T09:58:59.298Z,127.66
2023-03-17T09:59:59.333Z,129.87
2023-03-17T10:00:59.360Z,131.82
2023-03-17T10:01:59.444Z,135.19
2023-03-17T10:02:59.421Z,134.76
2023-03-17T10:03:59.437Z,135.40
2023-03-17T10:04:59.524Z,139.42
2023-03-17T10:05:59.482Z,139.35
2023-03-17T10:06:59.513Z,140.75
2023-03-17T10:07:59.552Z,142.83
2023-03-17T10:08:59.569Z,144.61
2023-03-17T10:09:59.581Z,144.77
2023-03-17T10:10:59.610Z,146.20
2023-03-17T10:11:59.650Z,149.19
2023-03-17T10:12:59.671Z,150.05
2023-03-17T10:13:59.718Z,152.03
2023-03-17T10:14:59.732Z,152.67
2023-03-17T10:15:59.819Z,155.69
2023-03-17T10:16:59.776Z,152.98
2023-03-17T10:17:59.818Z,155.53
2023-03-17T10:18:59.868Z,153.28
2023-03-17T10:19:59.884Z,155.88
2023-03-17T10:20:59.908Z,156.24
2023-03-17T10:21:59.954Z,155.34
2023-03-17T10:22:59.973Z,152.69
2023-03-17T10:24:00.021Z,150.34
2023-03-17T10:25:02.397Z,152.06
2023-03-17T10:26:00.116Z,153.24
2023-03-17T10:27:00.115Z,154.47
2023-03-17T10:28:00.144Z,155.31
2023-03-17T10:29:00.160Z,154.32
2023-03-17T10:30:00.184Z,156.97
2023-03-17T10:31:00.207Z,154.72
2023-03-17T10:32:00.317Z,151.95
2023-03-17T10:33:00.263Z,151.41
2023-03-17T10:34:00.262Z,151.74
2023-03-17T10:35:00.293Z,149.10
2023-03-17T10:36:00.344Z,149.94
2023-03-17T10:37:00.343Z,150.63
2023-03-17T10:38:13.853Z,149.22
2023-03-17T10:40:00.410Z,147.36
2023-03-17T10:41:00.435Z,146.79
2023-03-17T10:43:00.482Z,147.03
2023-03-17T10:44:00.494Z,145.56
2023-03-17T10:45:00.519Z,146.21
2023-03-17T10:46:00.546Z,145.44
2023-03-17T10:47:00.634Z,145.64
2023-03-17T10:48:00.608Z,143.59
2023-03-17T10:49:00.622Z,140.93
2023-03-17T10:50:00.633Z,138.95
2023-03-17T10:51:00.659Z,139.04
2023-03-17T10:52:00.679Z,136.47
2023-03-17T10:53:00.796Z,135.82
2023-03-17T10:54:00.830Z,135.26
2023-03-17T10:55:00.935Z,135.85
2023-03-17T10:57:01.123Z,134.99
2023-03-17T10:58:01.202Z,132.21
2023-03-17T10:59:01.264Z,128.92
2023-03-17T11:41:04.344Z,190.65
2023-03-17T12:53:07.997Z,196.89
2023-03-17T12:54:08.074Z,197.69
2023-03-17T12:55:08.158Z,196.52
2023-03-17T12:56:08.236Z,195.89
2023-03-17T12:57:08.334Z,196.71
2023-03-17T12:58:08.421Z,195.53
2023-03-17T12:59:08.518Z,194.81
2023-03-17T13:00:08.606Z,195.74
2023-03-17T13:01:08.969Z,194.77
2023-03-17T13:02:08.800Z,194.75
2023-03-17T13:03:08.919Z,194.14
2023-03-17T13:04:08.964Z,194.67
2023-03-17T13:05:09.029Z,194.04
2023-03-17T13:06:09.121Z,193.79
2023-03-17T13:07:09.246Z,192.25
2023-03-17T13:08:09.306Z,192.14
2023-03-17T13:09:09.394Z,192.45
2023-03-17T13:10:09.478Z,191.70
2023-03-17T13:11:09.561Z,191.99
2023-03-17T13:12:09.648Z,192.02
2023-03-17T13:13:09.754Z,192.18
2023-03-17T13:14:09.837Z,190.70
2023-03-17T13:15:09.928Z,191.67
2023-03-17T13:16:10.050Z,190.57
2023-03-17T13:17:10.057Z,189.79
2023-03-17T13:18:10.167Z,189.51
2023-03-17T13:19:10.252Z,189.85
2023-03-17T15:23:17.990Z,166.91
2023-03-17T15:24:18.038Z,167.30
2023-03-17T15:25:18.112Z,165.79
2023-03-17T15:26:18.125Z,166.96
2023-03-17T15:27:18.175Z,165.85
2023-03-17T15:28:18.236Z,166.05
2023-03-17T15:29:18.252Z,165.99
2023-03-17T15:30:18.295Z,166.31
2023-03-17T15:31:18.362Z,165.90
2023-03-17T15:32:18.362Z,165.67
2023-03-17T15:33:18.419Z,165.46
2023-03-17T15:34:18.464Z,165.12
2023-03-17T15:37:18.560Z,163.56
2023-03-17T15:44:18.838Z,163.96
2023-03-17T15:45:18.899Z,163.37
2023-03-17T15:46:19.040Z,163.22
2023-03-17T15:47:19.031Z,163.74
2023-03-17T18:24:28.024Z,137.01
2023-03-17T18:25:28.107Z,138.71
2023-03-17T18:26:28.183Z,135.41
2023-03-17T18:27:28.259Z,137.43
2023-03-17T18:28:28.354Z,136.17
2023-03-17T18:29:28.411Z,136.99
2023-03-17T18:30:28.489Z,134.31
2023-03-17T18:31:28.564Z,134.71
2023-03-17T18:32:28.657Z,134.15
2023-03-17T18:33:28.714Z,133.86
2023-03-17T18:34:28.790Z,133.66
2023-03-17T18:35:28.910Z,131.17
2023-03-17T18:36:28.942Z,133.15
2023-03-17T18:37:29.005Z,132.68
2023-03-17T18:38:29.100Z,132.24
2023-03-17T18:39:29.167Z,132.16
2023-03-17T18:40:29.243Z,131.64
2023-03-17T18:41:29.308Z,131.61
2023-03-17T18:42:29.398Z,133.14
2023-03-17T18:43:29.470Z,132.23
2023-03-17T18:44:29.545Z,131.04
2023-03-17T18:45:29.649Z,130.74
2023-03-17T18:46:29.726Z,128.88
2023-03-17T18:47:29.786Z,130.53
2023-03-17T18:48:29.864Z,130.75
2023-03-17T18:49:29.946Z,130.19
2023-03-17T18:50:30.280Z,128.38
2023-03-17T18:51:30.113Z,127.91
2023-03-17T18:52:30.184Z,128.22
2023-03-17T18:53:30.258Z,126.71
2023-03-17T18:54:30.345Z,129.47
2023-03-17T18:55:30.437Z,130.12
2023-03-17T18:56:30.517Z,127.92
2023-03-17T18:57:30.587Z,129.41
2023-03-17T18:58:30.675Z,128.76
2023-03-17T18:59:30.748Z,127.94
2023-03-17T19:00:31.084Z,126.82
2023-03-17T19:01:30.951Z,126.64
2023-03-17T19:02:31.000Z,127.51
2023-03-17T19:03:31.131Z,125.61
2023-03-17T19:04:31.153Z,126.94
2023-03-17T19:05:31.252Z,129.27
2023-03-17T19:06:31.311Z,127.16
2023-03-17T19:07:31.400Z,125.81
2023-03-17T19:08:31.476Z,126.25
2023-03-17T19:09:31.547Z,124.31
2023-03-17T19:10:31.829Z,124.34
2023-03-17T19:11:31.716Z,126.16
2023-03-17T19:12:31.807Z,125.73
2023-03-17T19:13:31.888Z,125.75
2023-03-17T19:14:31.981Z,125.49
2023-03-17T19:15:32.073Z,128.39
2023-03-17T19:16:32.164Z,126.04
2023-03-17T19:17:32.220Z,123.38
2023-03-17T19:18:32.311Z,123.12
2023-03-17T19:19:32.390Z,125.45
2023-03-17T19:20:32.880Z,124.57
2023-03-17T19:21:32.528Z,124.31
2023-03-17T19:22:32.614Z,125.50
2023-03-17T19:23:32.685Z,123.54
2023-03-17T19:24:32.767Z,123.67
2023-03-17T19:25:32.848Z,124.12
2023-03-17T19:26:32.937Z,123.79
2023-03-17T19:27:33.033Z,122.13
2023-03-17T20:22:38.026Z,117.29
2023-03-17T20:23:38.113Z,116.29
2023-03-17T20:24:38.237Z,115.05
2023-03-17T20:25:38.312Z,116.78
2023-03-17T20:26:38.416Z,117.08
2023-03-17T20:27:38.511Z,115.38
2023-03-17T20:28:38.634Z,116.21
2023-03-17T20:29:38.775Z,114.22
2023-03-17T20:30:38.810Z,115.45
2023-03-17T20:31:38.977Z,115.48
2023-03-17T20:32:39.053Z,115.02
2023-03-17T20:33:39.118Z,115.39
2023-03-17T20:34:39.212Z,115.51
2023-03-17T20:35:39.321Z,113.88
2023-03-17T20:36:39.393Z,115.68
2023-03-17T20:37:39.485Z,114.83
2023-03-17T20:38:39.585Z,114.68
2023-03-17T20:39:39.669Z,115.25
2023-03-17T20:40:39.778Z,114.66
2023-03-17T20:41:39.875Z,114.89
2023-03-17T20:42:40.002Z,114.53
2023-03-17T20:43:40.082Z,114.45
2023-03-17T20:44:40.183Z,115.09
2023-03-17T20:45:40.285Z,112.61
2023-03-17T20:46:40.452Z,113.80
2023-03-17T20:47:40.507Z,111.63
2023-03-17T20:48:40.621Z,113.62
2023-03-17T20:49:40.707Z,112.07
2023-03-17T20:50:40.821Z,111.45
2023-03-17T20:51:40.905Z,111.67
2023-03-17T20:52:41.005Z,109.57
2023-03-17T20:53:41.108Z,112.73
2023-03-17T20:54:41.214Z,110.60
2023-03-17T20:55:41.303Z,110.13
2023-03-17T20:56:41.397Z,111.62
2023-03-17T20:57:41.506Z,110.81
2023-03-17T20:58:41.596Z,111.04
2023-03-17T20:59:41.721Z,112.37
2023-03-17T21:00:41.809Z,112.45
2023-03-17T21:01:41.933Z,111.45
2023-03-17T21:02:42.100Z,111.94
2023-03-17T21:03:42.085Z,112.06
2023-03-17T21:04:42.199Z,110.79
2023-03-17T21:05:42.305Z,111.13
2023-03-17T21:06:42.411Z,109.52
2023-03-17T21:07:42.575Z,108.06
2023-03-17T21:08:42.582Z,108.40
2023-03-17T21:09:42.685Z,107.66
2023-03-17T21:10:42.809Z,109.19
2023-03-17T21:11:42.911Z,108.94
2023-03-17T21:12:43.013Z,110.34
2023-03-17T21:13:43.120Z,108.89
2023-03-17T21:14:43.222Z,108.24
2023-03-17T21:15:43.329Z,107.97
2023-03-17T21:16:43.448Z,107.57
2023-03-17T21:17:43.543Z,106.02
2023-03-17T21:18:43.650Z,106.81
2023-03-17T21:19:43.742Z,108.23
2023-03-17T21:20:43.879Z,106.34
2023-03-17T21:21:43.938Z,106.78
2023-03-17T21:22:44.048Z,108.33
2023-03-17T21:23:44.168Z,108.36
2023-03-17T21:24:44.268Z,107.39
2023-03-17T21:25:44.381Z,109.00
2023-03-17T21:26:44.475Z,108.20
2023-03-17T21:27:44.600Z,106.95
2023-03-17T21:28:44.694Z,106.40
2023-03-17T21:29:44.786Z,107.62
2023-03-17T21:30:44.885Z,106.88
2023-03-17T21:31:45.079Z,106.47
2023-03-17T21:32:45.148Z,105.51
2023-03-17T21:33:45.214Z,104.56
2023-03-17T21:34:45.311Z,103.63
2023-03-17T21:35:45.485Z,103.48
2023-03-17T21:36:45.553Z,104.58
2023-03-17T21:37:45.661Z,104.59
2023-03-17T21:38:45.746Z,105.91
2023-03-17T21:39:45.883Z,104.67
2023-03-17T21:40:45.958Z,104.30
2023-03-17T21:41:46.063Z,105.73
2023-03-17T21:42:46.166Z,106.65
2023-03-17T21:43:46.274Z,106.83
2023-03-17T21:44:46.380Z,106.83
2023-03-17T21:59:47.973Z,102.01
2023-03-17T22:00:48.474Z,101.55
2023-03-17T22:01:48.194Z,102.37
2023-03-17T22:02:48.426Z,100.86
2023-03-17T22:03:48.418Z,99.75
2023-03-17T22:04:48.517Z,102.52
2023-03-17T22:05:48.637Z,101.47
2023-03-17T22:06:48.745Z,99.70
2023-03-17T22:07:48.826Z,99.77
2023-03-17T22:08:48.935Z,101.75
2023-03-17T22:09:49.052Z,101.68
2023-03-17T22:10:49.193Z,99.55
2023-03-17T22:11:49.276Z,100.45
2023-03-17T22:12:49.370Z,100.99
2023-03-17T22:13:49.480Z,100.65
2023-03-17T22:14:49.580Z,100.04
2023-03-17T22:15:49.710Z,98.46
2023-03-17T22:16:49.861Z,103.00
2023-03-17T22:17:49.896Z,97.76
2023-03-17T22:18:50.002Z,97.55
2023-03-17T22:19:50.113Z,98.04
2023-03-17T22:20:50.219Z,99.74
2023-03-17T22:21:50.333Z,100.25
2023-03-17T22:22:50.449Z,96.54
2023-03-17T22:23:50.554Z,99.58
2023-03-17T22:24:50.695Z,96.79
2023-03-17T22:25:50.793Z,98.13
2023-03-17T22:26:50.914Z,94.23
2023-03-17T22:27:51.022Z,95.80
2023-03-17T22:28:51.125Z,96.59
2023-03-17T22:29:51.232Z,96.01
2023-03-17T22:30:51.338Z,97.51
2023-03-17T22:31:51.493Z,98.08
2023-03-17T22:33:51.668Z,99.28
2023-03-17T22:34:51.778Z,95.98
2023-03-17T22:35:51.917Z,98.86
2023-03-17T22:36:52.019Z,98.81
2023-03-17T23:29:58.065Z,91.47
2023-03-17T23:30:58.234Z,91.05
2023-03-17T23:31:58.304Z,89.79
2023-03-17T23:32:58.462Z,91.30
2023-03-17T23:33:58.526Z,90.89
2023-03-17T23:34:58.642Z,93.34
2023-03-17T23:35:58.817Z,92.31
2023-03-17T23:36:58.865Z,91.66
2023-03-17T23:37:58.980Z,89.55
2023-03-17T23:38:59.096Z,91.65
2023-03-17T23:39:59.212Z,93.69
2023-03-17T23:40:59.320Z,94.01
2023-03-17T23:41:59.442Z,88.49
2023-03-17T23:42:59.562Z,90.68
2023-03-17T23:43:59.681Z,88.13
2023-03-17T23:44:59.797Z,87.24
2023-03-17T23:45:59.932Z,85.54
2023-03-17T23:47:00.020Z,87.47
2023-03-17T23:48:00.129Z,92.49
2023-03-17T23:49:00.244Z,91.07
2023-03-17T23:50:00.350Z,88.11
2023-03-17T23:51:00.454Z,88.55
2023-03-17T23:52:00.583Z,87.43
2023-03-17T23:53:00.729Z,91.81
2023-03-17T23:54:00.805Z,89.32
2023-03-17T23:55:00.925Z,87.91
2023-03-17T23:56:01.054Z,89.62
2023-03-17T23:57:01.159Z,87.88
2023-03-17T23:58:01.282Z,90.75
2023-03-17T23:59:01.367Z,87.80
